Ogallala, NE

12:35 AM MDT on March 24, 2017 (GMT -0600)
MUP225 | | Change Station

Elev 3204 ft 41.13 °N, 101.66 °W | Updated 9 hours ago

Rain
Rain
73.0 °F
Feels Like 73.0 °F
N
3.0
Wind Variable Wind from SSE

Today
High -- | Low -- °F
--% Chance of Precip.
Yesterday
High -- | Low -- °F
Precip. -- in
Pressure 29.77 in
Visibility 10.0 miles
Clouds Overcast 9500 ft
Dew Point Not available.
Humidity Not available.
Rainfall 0.11 in
Snow Depth Not available.
6:42 AM 7:03 PM
Waning Crescent, 17% visible
METAR KOGA 240615Z AUTO 36017G22KT 10SM -DZ OVC095 09/08 A2977 RMK AO2 LTG DSNT SW T00900075
Pressure 29.77 in
Visibility 10.0 miles
Clouds Overcast 9500 ft
Dew Point Not available.
Humidity Not available.
Rainfall 0.11 in
Snow Depth Not available.
6:42 AM 7:03 PM
Waning Crescent, 17% visible
METAR KOGA 240615Z AUTO 36017G22KT 10SM -DZ OVC095 09/08 A2977 RMK AO2 LTG DSNT SW T00900075

Get Severe Weather Alerts

Thanks for signing up!

Be on the lookout for a verification email in your inbox.

You'll start receiving the daily forecast at 8 AM.

×

10-Day Weather Forecast

Almanac

Astronomy

Mar. 24, 2017 Rise Set
Actual Time
Civil Twilight
Nautical Twilight
Astronomical Twilight
Moon
Length of Visible Light
Length of Day
Tomorrow will be .
, % of the Moon is Illuminated

Today's Extremes

State Highs State Lows

Community

WunderPhotos

Upload Photos

1,962,540 photos uploaded!

WunderBlog® & News

Nearby

Air Quality

  Air Quality AQ Index Pollutant
Not available.

Snow Depth

Station Depth Elevation

Earthquake Activity

City Distance Mag. Time & Date
Minimum magnitude displayed is 2.5.

Earthquake Activity

City Distance Mag. Time & Date
Minimum magnitude displayed is 2.5.

Coastal Water Temperatures

Place Temperature

Stations

Nearby Weather Stations

Station Location Temp. Windchill Dew Point Humidity Wind Precip. Elev Updated Type
                   

Watches & Warnings

There are currently no watches in effect.